Time;durP1;ratioP1;P1;durP2;ratioP2;P2;SDS_P1;SDS_P2;PMS_P1;PMS_P2;Temp;Humidity;BMP_temperature;BMP_pressure;BME280_temperature;BME280_humidity;BME280_pressure;Samples;Min_cycle;Max_cycle;Signal;HPM_P1;HPM_P2
2022/07/29 00:01:44;;;;;;;4.60;2.10;;;23.30;54.90;;;;;;5035200;28;20487;-85
2022/07/29 00:04:11;;;;;;;4.10;1.60;;;23.20;54.90;;;;;;5058364;28;20444;-83
2022/07/29 00:06:40;;;;;;;2.10;1.67;;;23.20;54.90;;;;;;5045577;28;20454;-85
2022/07/29 00:09:06;;;;;;;2.60;1.87;;;23.10;54.90;;;;;;5045342;28;20457;-84
2022/07/29 00:11:33;;;;;;;1.87;1.50;;;23.20;55.00;;;;;;5042616;28;20478;-84
2022/07/29 00:14:00;;;;;;;3.00;1.60;;;23.20;55.10;;;;;;5037755;28;20453;-84
2022/07/29 00:16:27;;;;;;;2.50;1.80;;;23.20;55.00;;;;;;5016205;28;20460;-84
2022/07/29 00:18:54;;;;;;;2.50;1.60;;;23.20;55.10;;;;;;5035538;28;20445;-85
2022/07/29 00:21:20;;;;;;;5.63;2.27;;;23.40;55.40;;;;;;5045943;28;20472;-85
2022/07/29 00:23:47;;;;;;;2.30;1.73;;;23.50;55.10;;;;;;5046053;28;20445;-83
2022/07/29 00:26:14;;;;;;;2.10;1.70;;;23.50;55.30;;;;;;5044107;28;20461;-86
2022/07/29 00:28:40;;;;;;;3.07;2.00;;;23.40;55.20;;;;;;5041840;28;20449;-84
2022/07/29 00:31:07;;;;;;;2.70;1.97;;;23.40;55.30;;;;;;5028488;28;20478;-83
2022/07/29 00:33:35;;;;;;;2.43;1.40;;;23.40;55.40;;;;;;5037865;28;20429;-85
2022/07/29 00:36:02;;;;;;;2.13;1.60;;;23.40;55.40;;;;;;5058893;28;20456;-87
2022/07/29 00:38:29;;;;;;;4.23;2.00;;;23.30;55.50;;;;;;5033845;28;20496;-86
2022/07/29 00:40:56;;;;;;;3.27;1.93;;;23.30;55.60;;;;;;5042428;28;20472;-84
2022/07/29 00:43:22;;;;;;;5.20;2.20;;;23.30;55.70;;;;;;5024617;28;20468;-87
2022/07/29 00:45:49;;;;;;;3.03;1.73;;;23.30;55.70;;;;;;5048311;28;20461;-84
2022/07/29 00:48:16;;;;;;;3.30;1.47;;;23.30;55.70;;;;;;5035282;28;20456;-85
2022/07/29 00:50:42;;;;;;;4.60;1.90;;;23.30;55.50;;;;;;5035917;28;20492;-83
2022/07/29 00:53:11;;;;;;;2.80;1.93;;;23.50;55.20;;;;;;5039390;28;20452;-83
2022/07/29 00:55:38;;;;;;;3.40;1.70;;;23.50;55.20;;;;;;5037187;28;20460;-84
2022/07/29 00:58:06;;;;;;;2.47;1.90;;;23.60;55.00;;;;;;5035637;28;20492;-84
2022/07/29 01:00:33;;;;;;;5.73;1.70;;;23.50;55.30;;;;;;5040540;28;20480;-83
2022/07/29 01:03:00;;;;;;;3.73;1.90;;;23.50;55.70;;;;;;5014513;28;20536;-84
2022/07/29 01:05:29;;;;;;;3.50;1.97;;;23.40;55.80;;;;;;5037097;28;20460;-84
2022/07/29 01:08:15;;;;;;;3.93;1.80;;;23.30;56.00;;;;;;5016974;28;20461;-83
2022/07/29 01:10:43;;;;;;;2.97;1.50;;;23.20;56.60;;;;;;5036612;28;20479;-85
2022/07/29 01:13:11;;;;;;;2.43;1.70;;;23.20;57.00;;;;;;5031214;28;20452;-82
2022/07/29 01:15:45;;;;;;;3.70;2.00;;;23.10;57.30;;;;;;5017834;28;20492;-81
2022/07/29 01:18:39;;;;;;;2.83;1.43;;;23.10;57.50;;;;;;5031698;28;20508;-83
2022/07/29 01:21:23;;;;;;;1.93;1.70;;;23.10;57.50;;;;;;5018297;28;20940;-83
2022/07/29 01:23:59;;;;;;;2.90;1.50;;;23.10;58.30;;;;;;5027842;28;20460;-85
2022/07/29 01:26:45;;;;;;;3.27;1.60;;;23.10;58.00;;;;;;5034702;28;20471;-82
2022/07/29 01:29:29;;;;;;;3.70;2.30;;;23.10;58.00;;;;;;5030177;28;20537;-85
2022/07/29 01:32:11;;;;;;;3.70;2.00;;;23.10;58.00;;;;;;5064515;28;20451;-83
2022/07/29 01:35:02;;;;;;;6.10;2.10;;;23.00;57.70;;;;;;5051764;28;20623;-84
2022/07/29 01:37:42;;;;;;;4.10;1.80;;;23.00;57.70;;;;;;5046697;28;20469;-83
2022/07/29 01:40:42;;;;;;;2.77;2.00;;;23.00;57.80;;;;;;5044020;28;20449;-83
2022/07/29 01:43:12;;;;;;;2.50;1.97;;;23.00;57.70;;;;;;5051097;28;20803;-82
2022/07/29 01:45:43;;;;;;;3.50;1.90;;;23.00;57.60;;;;;;5037146;28;20446;-85
2022/07/29 01:48:15;;;;;;;2.53;1.90;;;23.10;57.30;;;;;;5038710;28;20475;-83
2022/07/29 01:50:46;;;;;;;2.30;1.83;;;23.00;57.10;;;;;;5039695;28;20482;-83
2022/07/29 01:53:18;;;;;;;3.60;2.20;;;23.10;56.90;;;;;;5047185;28;20432;-84
2022/07/29 01:55:45;;;;;;;6.60;2.20;;;23.10;56.90;;;;;;5052421;28;20476;-85
2022/07/29 01:58:15;;;;;;;4.10;2.10;;;23.20;56.60;;;;;;5043913;28;20530;-85
2022/07/29 02:00:45;;;;;;;3.90;2.60;;;23.00;56.50;;;;;;5039619;28;20468;-85
2022/07/29 02:03:12;;;;;;;5.23;2.43;;;22.90;56.40;;;;;;5053011;28;20449;-84
2022/07/29 02:05:42;;;;;;;5.17;2.20;;;22.80;56.40;;;;;;5047317;28;20793;-84
2022/07/29 02:08:10;;;;;;;5.70;2.33;;;22.70;56.50;;;;;;5032206;28;20485;-87
2022/07/29 02:10:39;;;;;;;2.20;1.73;;;22.80;56.80;;;;;;5023525;28;21002;-84
2022/07/29 02:13:09;;;;;;;5.00;2.00;;;23.00;56.80;;;;;;5044156;28;20453;-85
2022/07/29 02:15:37;;;;;;;2.40;1.77;;;23.30;56.40;;;;;;5035767;28;20500;-84
2022/07/29 02:18:18;;;;;;;2.07;1.83;;;23.00;56.20;;;;;;5019985;28;20481;-84
2022/07/29 02:20:48;;;;;;;4.43;2.00;;;22.80;56.60;;;;;;5032862;28;20487;-84
2022/07/29 02:23:19;;;;;;;2.50;1.90;;;22.80;57.60;;;;;;5012831;28;20453;-83
2022/07/29 02:25:49;;;;;;;3.73;2.00;;;22.70;56.80;;;;;;5030917;28;20849;-85
2022/07/29 02:28:18;;;;;;;3.73;1.90;;;22.60;56.90;;;;;;5029470;28;20457;-86
2022/07/29 02:30:46;;;;;;;3.10;2.13;;;22.60;57.20;;;;;;5020107;28;20473;-84
2022/07/29 02:33:17;;;;;;;2.23;1.97;;;22.60;57.30;;;;;;5030514;28;20507;-84
2022/07/29 02:35:46;;;;;;;2.60;1.80;;;22.50;57.40;;;;;;5035078;28;20469;-84
2022/07/29 02:41:11;;;;;;;3.10;2.03;;;22.60;57.20;;;;;;5040726;28;20484;-84
2022/07/29 02:43:40;;;;;;;5.90;2.20;;;22.60;57.30;;;;;;5023764;28;20544;-83
2022/07/29 02:46:19;;;;;;;3.60;2.23;;;22.50;57.50;;;;;;5040035;28;22494;-85
2022/07/29 02:49:34;;;;;;;5.30;2.17;;;22.60;57.50;;;;;;5037470;28;20456;-85
2022/07/29 02:52:06;;;;;;;4.83;2.10;;;22.50;57.70;;;;;;5039006;28;20476;-87
2022/07/29 02:54:42;;;;;;;2.57;1.80;;;22.40;57.80;;;;;;5043850;28;20942;-84
2022/07/29 02:57:22;;;;;;;3.70;2.20;;;22.40;58.00;;;;;;5027774;28;20492;-84
2022/07/29 02:59:52;;;;;;;4.97;2.23;;;22.30;58.00;;;;;;5039156;28;20445;-85
2022/07/29 03:02:21;;;;;;;5.93;2.20;;;22.20;58.20;;;;;;5024938;28;20505;-84
2022/07/29 03:04:48;;;;;;;3.00;2.10;;;22.10;58.20;;;;;;5021021;28;20450;-86
2022/07/29 03:07:18;;;;;;;2.27;2.03;;;22.20;58.20;;;;;;5023914;28;20470;-85
2022/07/29 03:09:45;;;;;;;2.80;2.30;;;22.20;58.00;;;;;;5041243;28;20456;-84
2022/07/29 03:12:13;;;;;;;5.60;2.13;;;22.20;57.90;;;;;;5037271;28;20490;-84
2022/07/29 03:14:40;;;;;;;8.70;2.50;;;22.20;57.60;;;;;;5018823;28;20461;-85
2022/07/29 03:17:09;;;;;;;7.20;2.73;;;22.10;58.90;;;;;;5019763;28;20457;-84
2022/07/29 03:19:36;;;;;;;2.57;2.20;;;21.90;59.80;;;;;;5047951;28;20460;-86
2022/07/29 03:22:03;;;;;;;5.67;2.20;;;21.90;60.70;;;;;;5018929;28;20477;-84
2022/07/29 03:24:31;;;;;;;2.90;2.17;;;21.80;61.30;;;;;;5035401;28;20453;-85
2022/07/29 03:26:58;;;;;;;2.23;2.00;;;21.70;61.70;;;;;;5033054;28;20459;-83
2022/07/29 03:29:26;;;;;;;5.20;2.50;;;21.80;61.90;;;;;;5038252;28;20453;-85
2022/07/29 03:31:59;;;;;;;4.13;2.33;;;21.70;62.00;;;;;;5037373;28;21022;-85
2022/07/29 03:34:25;;;;;;;5.10;1.90;;;21.70;61.90;;;;;;5019341;28;20962;-85
2022/07/29 03:36:52;;;;;;;4.00;2.10;;;21.80;61.90;;;;;;5040650;28;20955;-85
2022/07/29 03:39:24;;;;;;;7.10;1.97;;;21.80;61.80;;;;;;5028471;28;20477;-84
2022/07/29 03:41:55;;;;;;;4.83;2.10;;;21.90;62.10;;;;;;5035265;28;20490;-85
2022/07/29 03:44:23;;;;;;;2.07;1.63;;;21.90;61.70;;;;;;5037289;28;20472;-84
2022/07/29 03:46:51;;;;;;;6.60;2.00;;;21.80;61.90;;;;;;5038709;28;20457;-84
2022/07/29 03:49:21;;;;;;;3.33;2.03;;;21.70;62.30;;;;;;5036893;28;20451;-84
2022/07/29 03:51:48;;;;;;;8.63;1.97;;;21.80;62.60;;;;;;5023544;28;20896;-84
2022/07/29 03:54:15;;;;;;;3.50;2.13;;;21.70;62.70;;;;;;5042834;28;20449;-86
2022/07/29 03:56:47;;;;;;;3.93;1.80;;;21.70;62.60;;;;;;5020958;28;20483;-83
2022/07/29 03:59:15;;;;;;;3.53;2.23;;;21.60;63.00;;;;;;5025249;28;20473;-86
2022/07/29 04:01:43;;;;;;;8.53;3.23;;;22.00;62.30;;;;;;5036202;28;20472;-84
2022/07/29 04:04:10;;;;;;;3.90;2.57;;;21.90;62.30;;;;;;5024930;28;20453;-85
2022/07/29 04:06:41;;;;;;;7.20;2.60;;;21.70;62.60;;;;;;5033201;28;20444;-84
2022/07/29 04:09:08;;;;;;;4.30;2.70;;;21.70;62.60;;;;;;5046994;28;20444;-85
2022/07/29 04:11:40;;;;;;;7.77;3.00;;;21.40;62.60;;;;;;5039845;28;20486;-85
2022/07/29 04:14:22;;;;;;;7.30;2.47;;;21.40;63.10;;;;;;5042085;28;20483;-84
2022/07/29 04:16:49;;;;;;;4.63;2.20;;;21.40;62.60;;;;;;5017943;28;20520;-86
2022/07/29 04:22:02;;;;;;;5.00;2.30;;;21.20;62.90;;;;;;5125839;22;20488;-83
2022/07/29 04:24:29;;;;;;;3.00;2.37;;;21.40;62.90;;;;;;5037561;28;20461;-85
2022/07/29 04:26:56;;;;;;;6.23;2.60;;;21.20;62.70;;;;;;5048755;28;20453;-88
2022/07/29 04:29:23;;;;;;;3.73;2.50;;;21.20;62.90;;;;;;5053163;28;20687;-83
2022/07/29 04:31:49;;;;;;;3.97;2.33;;;21.40;63.10;;;;;;5022814;28;20547;-84
2022/07/29 04:34:16;;;;;;;3.83;2.10;;;21.30;63.00;;;;;;5038555;28;20480;-85
2022/07/29 04:36:43;;;;;;;5.00;2.30;;;21.20;63.40;;;;;;5035081;28;20526;-85
2022/07/29 04:39:10;;;;;;;2.67;2.13;;;21.50;63.20;;;;;;5031889;28;20867;-83
2022/07/29 04:41:37;;;;;;;9.93;2.90;;;21.40;63.50;;;;;;5039473;28;20477;-85
2022/07/29 04:44:04;;;;;;;3.70;2.20;;;21.40;63.80;;;;;;5027246;28;20540;-85
2022/07/29 04:46:33;;;;;;;4.10;2.87;;;21.40;63.40;;;;;;5039247;28;20544;-82
2022/07/29 04:49:00;;;;;;;3.00;2.13;;;21.40;62.80;;;;;;5044495;28;20453;-84
2022/07/29 04:51:27;;;;;;;3.83;2.80;;;21.30;63.20;;;;;;5041067;28;20488;-85
2022/07/29 04:53:54;;;;;;;2.63;1.87;;;21.20;63.50;;;;;;5048469;28;20459;-83
2022/07/29 04:56:21;;;;;;;5.80;2.80;;;21.30;63.80;;;;;;5040744;28;20561;-85
2022/07/29 04:58:47;;;;;;;3.53;2.17;;;21.40;63.80;;;;;;5045811;28;20484;-85
2022/07/29 05:01:14;;;;;;;6.23;2.50;;;21.50;62.90;;;;;;5021794;28;20556;-86
2022/07/29 05:03:41;;;;;;;3.67;2.10;;;21.50;62.60;;;;;;5045216;28;20461;-84
2022/07/29 05:06:08;;;;;;;3.60;3.27;;;21.60;62.10;;;;;;5039172;28;20453;-84
2022/07/29 05:08:35;;;;;;;5.20;2.43;;;21.50;62.10;;;;;;5048997;28;20511;-87
2022/07/29 05:11:03;;;;;;;7.30;3.30;;;21.40;62.30;;;;;;5041303;28;20476;-87
2022/07/29 05:13:37;;;;;;;5.00;2.50;;;21.30;62.70;;;;;;5041067;28;20508;-87
2022/07/29 05:16:12;;;;;;;5.10;2.63;;;21.30;62.90;;;;;;5043789;28;20451;-85
2022/07/29 05:18:39;;;;;;;3.40;2.00;;;21.40;63.10;;;;;;5059893;28;20480;-84
2022/07/29 05:21:06;;;;;;;4.07;2.00;;;21.40;62.60;;;;;;5064844;28;20464;-85
2022/07/29 05:23:33;;;;;;;3.80;2.60;;;21.60;62.00;;;;;;5042140;28;20596;-84
2022/07/29 05:26:00;;;;;;;5.27;2.70;;;21.50;61.70;;;;;;5042063;28;20461;-84
2022/07/29 05:28:26;;;;;;;6.40;3.67;;;21.60;61.90;;;;;;5037993;28;20473;-85
2022/07/29 05:30:54;;;;;;;7.40;2.63;;;21.40;62.20;;;;;;5033443;28;20481;-84
2022/07/29 05:33:20;;;;;;;6.80;2.50;;;21.40;62.40;;;;;;5022040;28;20457;-84
2022/07/29 05:36:02;;;;;;;8.27;2.53;;;21.50;62.30;;;;;;5040453;28;20464;-84
2022/07/29 05:38:29;;;;;;;4.30;2.80;;;21.60;62.00;;;;;;5039657;28;20488;-84
2022/07/29 05:40:58;;;;;;;4.73;2.30;;;21.40;62.20;;;;;;5042605;28;20473;-85
2022/07/29 05:43:26;;;;;;;4.67;3.07;;;21.40;62.80;;;;;;5030587;28;20516;-85
2022/07/29 05:45:53;;;;;;;5.13;2.37;;;21.40;62.20;;;;;;5046272;28;20457;-83
2022/07/29 05:48:20;;;;;;;15.63;3.43;;;21.50;62.40;;;;;;5029138;28;20481;-85
2022/07/29 05:50:47;;;;;;;3.90;2.30;;;21.50;62.20;;;;;;5048196;28;20493;-84
2022/07/29 05:53:14;;;;;;;3.47;2.63;;;21.50;61.90;;;;;;5046806;28;20430;-85
2022/07/29 05:55:44;;;;;;;6.83;2.57;;;21.50;62.10;;;;;;5042425;28;20552;-85
2022/07/29 05:58:11;;;;;;;6.07;2.50;;;21.70;61.50;;;;;;5043111;28;20501;-82
2022/07/29 06:00:37;;;;;;;5.20;2.27;;;21.80;60.60;;;;;;5043324;28;20477;-85
2022/07/29 06:03:04;;;;;;;5.10;2.30;;;21.90;60.70;;;;;;5044425;28;20817;-86
2022/07/29 06:05:31;;;;;;;5.03;2.40;;;22.20;60.00;;;;;;5021447;28;20449;-85
2022/07/29 06:07:57;;;;;;;5.33;2.63;;;21.90;60.00;;;;;;5026117;28;20446;-86
2022/07/29 06:10:24;;;;;;;3.17;2.37;;;21.80;60.90;;;;;;5039708;28;20485;-82
2022/07/29 06:12:52;;;;;;;5.00;2.90;;;21.70;60.80;;;;;;5035181;28;20889;-84
2022/07/29 06:15:19;;;;;;;9.60;3.20;;;21.70;60.80;;;;;;5031042;28;20457;-84
2022/07/29 06:17:45;;;;;;;4.43;2.30;;;21.80;60.90;;;;;;5033882;28;20465;-84
2022/07/29 06:20:26;;;;;;;12.23;2.93;;;21.80;60.90;;;;;;5034891;28;20542;-85
2022/07/29 06:22:53;;;;;;;5.33;2.80;;;21.80;60.50;;;;;;5032611;28;20464;-86
2022/07/29 06:25:20;;;;;;;6.50;3.10;;;22.00;60.80;;;;;;5039310;28;20453;-84
2022/07/29 06:27:48;;;;;;;6.50;3.00;;;21.90;60.60;;;;;;5020626;28;20453;-84
2022/07/29 06:30:15;;;;;;;4.70;2.70;;;22.00;60.60;;;;;;5037580;28;20457;-84
2022/07/29 06:32:42;;;;;;;5.00;2.70;;;21.90;60.30;;;;;;5024343;28;20457;-84
2022/07/29 06:35:09;;;;;;;5.90;3.13;;;21.90;60.60;;;;;;5050869;28;20506;-84
2022/07/29 06:37:56;;;;;;;8.33;2.77;;;21.90;60.70;;;;;;5032026;28;20448;-85
2022/07/29 06:43:09;;;;;;;3.60;2.17;;;21.70;61.10;;;;;;5034749;28;20820;-84
2022/07/29 06:45:36;;;;;;;8.90;2.73;;;21.60;61.60;;;;;;5039661;28;20453;-86
2022/07/29 06:48:02;;;;;;;6.10;2.40;;;21.90;61.70;;;;;;5028002;28;20848;-84
2022/07/29 06:50:29;;;;;;;5.17;2.63;;;22.00;61.30;;;;;;5026356;28;20478;-85
2022/07/29 06:52:56;;;;;;;18.77;16.87;;;22.00;61.00;;;;;;5036928;28;20453;-84
2022/07/29 06:55:23;;;;;;;8.20;2.53;;;21.90;61.40;;;;;;5032360;28;20531;-85
2022/07/29 06:57:51;;;;;;;4.97;2.50;;;21.80;61.50;;;;;;5039885;28;20990;-86
2022/07/29 07:00:18;;;;;;;6.80;2.67;;;21.80;61.90;;;;;;5037194;28;20465;-85
2022/07/29 07:02:44;;;;;;;4.23;2.20;;;21.80;61.90;;;;;;5047599;28;20456;-84
2022/07/29 07:05:11;;;;;;;3.73;2.33;;;21.80;62.30;;;;;;5040619;28;21030;-84
2022/07/29 07:07:38;;;;;;;4.27;2.00;;;21.70;63.00;;;;;;5037862;28;20457;-84
2022/07/29 07:10:05;;;;;;;6.33;3.03;;;21.90;63.60;;;;;;5004223;28;20457;-84
2022/07/29 07:12:32;;;;;;;2.40;2.20;;;22.20;63.40;;;;;;5035668;28;20459;-85
2022/07/29 07:14:58;;;;;;;7.20;2.50;;;22.40;63.60;;;;;;5038895;28;20445;-82
2022/07/29 07:17:25;;;;;;;7.53;2.73;;;22.50;62.20;;;;;;5038933;28;20993;-84
2022/07/29 07:19:52;;;;;;;2.47;2.20;;;22.40;62.30;;;;;;5032115;28;20488;-85
2022/07/29 07:22:18;;;;;;;6.47;2.50;;;22.20;62.60;;;;;;5039583;28;20512;-85
2022/07/29 07:24:45;;;;;;;5.37;2.77;;;22.70;62.10;;;;;;5018000;28;20462;-85
2022/07/29 07:27:12;;;;;;;5.47;2.90;;;22.80;61.40;;;;;;5046951;28;20446;-83
2022/07/29 07:29:40;;;;;;;5.20;2.70;;;22.80;60.50;;;;;;5054346;28;20441;-85
2022/07/29 07:32:07;;;;;;;5.70;3.23;;;22.50;60.80;;;;;;5048599;28;20520;-88
2022/07/29 07:34:35;;;;;;;3.53;2.70;;;22.30;61.60;;;;;;5052806;28;20446;-86
2022/07/29 07:37:01;;;;;;;3.70;2.33;;;22.50;61.50;;;;;;5041177;28;20951;-86
2022/07/29 07:39:28;;;;;;;10.37;3.03;;;22.40;61.10;;;;;;5026896;28;20485;-86
2022/07/29 07:41:54;;;;;;;4.30;2.50;;;22.50;61.60;;;;;;5037324;28;20474;-86
2022/07/29 07:44:21;;;;;;;4.33;2.70;;;22.70;60.90;;;;;;5022776;28;20461;-86
2022/07/29 07:46:49;;;;;;;8.00;2.63;;;22.80;61.40;;;;;;5035238;28;20480;-82
2022/07/29 07:49:15;;;;;;;5.57;2.67;;;22.60;61.60;;;;;;5040024;28;20944;-86
2022/07/29 07:51:42;;;;;;;5.83;3.37;;;22.30;62.90;;;;;;5026840;28;20516;-84
2022/07/29 07:54:09;;;;;;;4.27;2.60;;;22.00;64.10;;;;;;5041391;28;20919;-85
2022/07/29 07:56:35;;;;;;;7.17;3.50;;;21.90;65.00;;;;;;5046062;28;20477;-85
2022/07/29 07:59:02;;;;;;;4.50;3.03;;;21.90;67.20;;;;;;5032994;28;21137;-85
2022/07/29 08:01:29;;;;;;;3.03;2.73;;;21.80;69.80;;;;;;5029599;28;20481;-83
2022/07/29 08:03:55;;;;;;;5.10;3.37;;;21.70;73.30;;;;;;5021883;28;20453;-86
2022/07/29 08:06:24;;;;;;;6.33;3.13;;;21.60;75.40;;;;;;5574253;22;20444;-83
2022/07/29 08:08:51;;;;;;;4.73;3.30;;;21.50;76.50;;;;;;5042185;28;20433;-87
2022/07/29 08:11:21;;;;;;;5.00;2.93;;;21.40;77.70;;;;;;5028111;28;20546;-84
2022/07/29 08:13:48;;;;;;;4.43;3.20;;;21.50;80.20;;;;;;5020278;28;20510;-84
2022/07/29 08:16:15;;;;;;;10.87;3.80;;;21.50;81.30;;;;;;5025095;28;20466;-85
2022/07/29 08:18:44;;;;;;;7.13;3.00;;;21.50;81.60;;;;;;5035180;28;20508;-83
2022/07/29 08:21:11;;;;;;;9.70;3.40;;;21.60;82.30;;;;;;5046054;28;20845;-85
2022/07/29 08:23:45;;;;;;;4.27;2.77;;;21.60;82.10;;;;;;5027391;28;20446;-87
2022/07/29 08:26:17;;;;;;;4.70;3.10;;;21.70;81.60;;;;;;5040276;28;20447;-86
2022/07/29 08:28:45;;;;;;;6.03;3.10;;;21.80;80.60;;;;;;5045903;28;20468;-87
2022/07/29 08:31:13;;;;;;;8.93;3.07;;;22.50;75.00;;;;;;5030875;28;20508;-83
2022/07/29 08:33:40;;;;;;;8.97;3.47;;;22.70;72.80;;;;;;5015962;28;20470;-85
2022/07/29 08:36:07;;;;;;;5.90;2.90;;;22.70;72.70;;;;;;5027394;28;20460;-84
2022/07/29 08:38:34;;;;;;;6.10;3.03;;;22.60;73.40;;;;;;5031097;28;20521;-84
2022/07/29 08:41:01;;;;;;;5.37;2.83;;;22.80;75.20;;;;;;5032343;28;20472;-85
2022/07/29 08:43:28;;;;;;;6.70;3.60;;;22.80;73.70;;;;;;5027537;28;20504;-83
2022/07/29 08:45:55;;;;;;;3.67;3.20;;;22.60;75.00;;;;;;5032293;28;20441;-83
2022/07/29 08:48:23;;;;;;;6.80;2.90;;;22.50;76.90;;;;;;5038614;28;20518;-85
2022/07/29 08:50:55;;;;;;;4.93;3.03;;;22.20;77.70;;;;;;5037538;28;20472;-85
2022/07/29 08:53:26;;;;;;;5.30;2.90;;;22.00;78.00;;;;;;5034310;28;20458;-86
2022/07/29 08:55:53;;;;;;;7.83;2.93;;;21.90;77.90;;;;;;5028071;28;20449;-85
2022/07/29 08:58:21;;;;;;;8.20;5.77;;;21.90;78.40;;;;;;5032315;28;20445;-86
2022/07/29 09:00:52;;;;;;;5.70;2.50;;;21.90;77.90;;;;;;5025883;28;20481;-85
2022/07/29 09:03:22;;;;;;;5.37;3.33;;;21.90;77.70;;;;;;5040668;28;20450;-89
2022/07/29 09:05:49;;;;;;;5.77;3.30;;;22.00;77.80;;;;;;5014133;28;20507;-86
2022/07/29 09:08:17;;;;;;;11.07;3.23;;;22.30;77.00;;;;;;5030719;28;20461;-84
2022/07/29 09:10:44;;;;;;;7.83;3.37;;;22.70;75.90;;;;;;5023887;28;20533;-84
2022/07/29 09:13:11;;;;;;;7.17;3.57;;;22.80;74.70;;;;;;5025598;28;20454;-85
2022/07/29 09:15:38;;;;;;;7.47;3.50;;;22.60;75.60;;;;;;5038062;28;20443;-85
2022/07/29 09:18:05;;;;;;;7.60;3.97;;;22.50;76.80;;;;;;5034315;28;20485;-84
2022/07/29 09:23:17;;;;;;;10.20;5.20;;;22.50;78.90;;;;;;5039687;28;20453;-87
2022/07/29 09:25:48;;;;;;;7.47;5.00;;;22.50;80.80;;;;;;5039552;28;20473;-87
2022/07/29 09:28:17;;;;;;;9.23;6.40;;;22.50;82.90;;;;;;5039134;28;20457;-87
2022/07/29 09:30:56;;;;;;;15.23;4.93;;;22.50;83.10;;;;;;5038965;28;20494;-85
2022/07/29 09:33:31;;;;;;;12.70;5.20;;;22.50;84.10;;;;;;5039179;28;20490;-85
2022/07/29 09:36:07;;;;;;;5.53;4.80;;;22.60;84.30;;;;;;5033265;28;20445;-86
2022/07/29 09:38:36;;;;;;;10.17;4.10;;;22.90;84.50;;;;;;5036560;28;20469;-89
2022/07/29 09:41:04;;;;;;;6.87;4.10;;;23.20;82.70;;;;;;5025324;28;20541;-84
2022/07/29 09:43:33;;;;;;;4.63;4.20;;;23.30;82.00;;;;;;5032806;28;20450;-84
2022/07/29 09:46:13;;;;;;;9.50;3.90;;;23.10;81.60;;;;;;5035968;28;20487;-84
2022/07/29 09:48:40;;;;;;;10.40;4.10;;;23.10;80.90;;;;;;5026982;28;20498;-85
2022/07/29 09:51:20;;;;;;;6.23;3.80;;;23.00;80.80;;;;;;5032690;28;20467;-85
2022/07/29 09:53:54;;;;;;;6.43;3.50;;;23.00;80.60;;;;;;5015261;28;20471;-87
2022/07/29 09:56:44;;;;;;;4.57;4.03;;;23.20;80.10;;;;;;5043135;28;20810;-85
2022/07/29 09:59:11;;;;;;;7.50;4.00;;;23.10;79.70;;;;;;5030296;28;20500;-87
2022/07/29 10:01:38;;;;;;;6.03;3.77;;;23.00;80.40;;;;;;5037374;28;20461;-86
2022/07/29 10:04:05;;;;;;;6.43;3.67;;;22.90;81.30;;;;;;5035154;28;20453;-86
2022/07/29 10:06:32;;;;;;;6.77;3.67;;;22.90;81.40;;;;;;5039784;28;20453;-83
2022/07/29 10:09:09;;;;;;;9.70;4.40;;;22.90;81.50;;;;;;5040102;28;20432;-83
2022/07/29 10:11:36;;;;;;;6.47;4.00;;;22.90;80.50;;;;;;5048947;28;20482;-84
2022/07/29 10:14:14;;;;;;;7.30;3.63;;;23.00;80.10;;;;;;5038845;28;20453;-85
2022/07/29 10:16:42;;;;;;;8.63;4.30;;;23.00;78.80;;;;;;5032240;28;20446;-87
2022/07/29 10:19:09;;;;;;;3.80;2.83;;;23.10;78.20;;;;;;5017940;28;20511;-85
2022/07/29 10:21:37;;;;;;;6.00;3.20;;;23.20;78.30;;;;;;5029034;28;20473;-80
2022/07/29 10:24:06;;;;;;;4.50;3.00;;;23.20;78.00;;;;;;5029191;28;20451;-84
2022/07/29 10:26:33;;;;;;;6.60;4.00;;;23.50;77.50;;;;;;5038068;28;20449;-84
2022/07/29 10:29:00;;;;;;;3.77;2.77;;;23.50;75.60;;;;;;5032233;28;20454;-86
2022/07/29 10:31:49;;;;;;;4.77;3.13;;;23.60;74.70;;;;;;5028706;28;20467;-85
2022/07/29 10:34:35;;;;;;;7.00;3.10;;;23.60;73.80;;;;;;5032364;28;20485;-85
2022/07/29 10:37:28;;;;;;;3.63;3.23;;;23.80;73.60;;;;;;5034782;28;20446;-87
2022/07/29 10:43:29;;;;;;;4.90;3.20;;;24.10;74.40;;;;;;5038890;28;20582;-87
2022/07/29 10:46:00;;;;;;;4.60;3.83;;;24.20;73.10;;;;;;5028075;28;20447;-85
2022/07/29 10:48:27;;;;;;;8.80;3.30;;;24.50;73.20;;;;;;5036683;28;20445;-84
2022/07/29 10:51:00;;;;;;;4.43;3.00;;;25.10;71.70;;;;;;5022504;28;20465;-86
2022/07/29 10:54:05;;;;;;;3.33;2.50;;;26.00;68.20;;;;;;5015157;28;20473;-85
2022/07/29 10:56:35;;;;;;;5.50;2.97;;;26.30;66.00;;;;;;5028365;28;20473;-89
2022/07/29 10:59:19;;;;;;;5.40;3.13;;;26.60;63.60;;;;;;5028917;28;20514;-87
2022/07/29 11:01:49;;;;;;;6.07;3.40;;;26.70;61.80;;;;;;5017562;28;20556;-88
2022/07/29 11:04:44;;;;;;;4.47;3.60;;;27.40;60.10;;;;;;5025299;28;20465;-85
2022/07/29 11:07:12;;;;;;;5.07;3.13;;;27.60;58.30;;;;;;5026568;28;20458;-84
2022/07/29 11:09:40;;;;;;;4.27;3.87;;;27.30;58.50;;;;;;5015302;28;20481;-85
2022/07/29 11:12:42;;;;;;;5.80;3.70;;;27.40;58.40;;;;;;5020031;28;20561;-85
2022/07/29 11:15:18;;;;;;;4.33;3.30;;;27.40;58.60;;;;;;5012081;28;20591;-87
2022/07/29 11:17:54;;;;;;;4.87;2.93;;;27.70;58.30;;;;;;5029292;28;20446;-84
2022/07/29 11:20:41;;;;;;;3.30;2.90;;;27.80;57.70;;;;;;5035178;28;20458;-89
2022/07/29 11:23:31;;;;;;;4.10;2.57;;;28.00;57.00;;;;;;5027247;28;20455;-89
2022/07/29 11:26:19;;;;;;;5.90;3.20;;;28.40;55.80;;;;;;5012686;28;20454;-87
2022/07/29 11:28:54;;;;;;;5.10;3.43;;;28.70;54.10;;;;;;5012048;28;20459;-84
2022/07/29 11:31:41;;;;;;;3.30;2.57;;;28.60;54.50;;;;;;5016465;28;20478;-85
2022/07/29 11:34:29;;;;;;;5.43;2.70;;;29.10;53.90;;;;;;5028734;28;20454;-86
2022/07/29 11:37:12;;;;;;;4.03;2.77;;;30.00;51.30;;;;;;5027355;28;20514;-84
2022/07/29 11:39:46;;;;;;;5.77;3.30;;;29.90;50.30;;;;;;5010563;28;20485;-85
2022/07/29 11:42:25;;;;;;;5.20;2.50;;;29.30;50.60;;;;;;5031060;28;20534;-83
2022/07/29 11:45:00;;;;;;;7.07;2.37;;;28.80;51.30;;;;;;5025133;28;20453;-85
2022/07/29 11:47:30;;;;;;;7.20;3.67;;;29.10;51.00;;;;;;5040438;28;20500;-84
2022/07/29 11:49:58;;;;;;;4.47;3.70;;;29.50;50.20;;;;;;5043600;28;20441;-86
2022/07/29 11:52:37;;;;;;;5.10;2.60;;;29.10;50.60;;;;;;5025054;28;20553;-85
2022/07/29 11:55:06;;;;;;;4.40;2.57;;;28.90;51.50;;;;;;5034310;28;20458;-87
2022/07/29 11:57:35;;;;;;;4.00;2.10;;;29.40;51.20;;;;;;5026861;28;20463;-85
2022/07/29 12:00:10;;;;;;;4.87;2.70;;;29.50;50.50;;;;;;5033614;28;20492;-83
2022/07/29 12:02:43;;;;;;;4.30;2.60;;;29.50;50.70;;;;;;5022573;28;20452;-84
2022/07/29 12:05:10;;;;;;;4.23;2.97;;;29.60;50.90;;;;;;5026884;28;20441;-83
2022/07/29 12:07:39;;;;;;;2.87;2.30;;;29.50;50.10;;;;;;5027860;28;20461;-83
2022/07/29 12:10:07;;;;;;;4.37;2.20;;;29.20;50.90;;;;;;5028816;28;20580;-83
2022/07/29 12:12:38;;;;;;;4.37;2.43;;;29.10;50.90;;;;;;5047891;28;20432;-89
2022/07/29 12:15:18;;;;;;;4.77;2.67;;;29.10;50.80;;;;;;5037952;28;20450;-87
2022/07/29 12:17:47;;;;;;;3.23;2.93;;;28.90;51.60;;;;;;5035668;28;20457;-87
2022/07/29 12:20:29;;;;;;;4.40;2.40;;;29.00;51.20;;;;;;5040264;28;20537;-88
2022/07/29 12:22:56;;;;;;;3.73;2.40;;;28.80;50.80;;;;;;5031137;28;20449;-86
2022/07/29 12:25:24;;;;;;;4.10;2.83;;;28.40;51.70;;;;;;5035737;28;20850;-84
2022/07/29 12:28:05;;;;;;;7.40;3.30;;;28.00;52.50;;;;;;5010473;28;20468;-83
2022/07/29 12:30:40;;;;;;;6.60;2.60;;;28.00;52.60;;;;;;5028254;28;20494;-82
2022/07/29 12:33:12;;;;;;;5.80;2.33;;;28.10;52.70;;;;;;5038094;28;20433;-86
2022/07/29 12:35:39;;;;;;;7.13;2.80;;;28.20;51.70;;;;;;5037762;28;20502;-86
2022/07/29 12:38:10;;;;;;;2.40;2.07;;;28.10;51.50;;;;;;5031598;28;20478;-86
2022/07/29 12:40:37;;;;;;;5.00;2.40;;;28.00;51.70;;;;;;5017150;28;20484;-87
2022/07/29 12:43:11;;;;;;;3.07;2.53;;;28.10;51.50;;;;;;5039539;28;20512;-86
2022/07/29 12:45:46;;;;;;;5.50;2.80;;;28.80;49.20;;;;;;5050089;28;20445;-83
2022/07/29 12:48:15;;;;;;;4.50;2.70;;;29.80;47.30;;;;;;5036660;28;20444;-86
2022/07/29 12:51:01;;;;;;;3.20;2.27;;;30.30;46.40;;;;;;5031753;28;21039;-84
2022/07/29 12:53:32;;;;;;;3.87;2.47;;;29.50;46.80;;;;;;5024888;28;20456;-85
2022/07/29 12:56:01;;;;;;;7.30;2.70;;;30.00;46.20;;;;;;5019603;28;20454;-83
2022/07/29 12:59:22;;;;;;;2.83;2.50;;;30.30;45.20;;;;;;5026866;28;20453;-85
2022/07/29 13:01:59;;;;;;;2.80;2.60;;;29.90;45.90;;;;;;5001057;28;20520;-84
2022/07/29 13:04:33;;;;;;;3.93;2.70;;;29.80;46.30;;;;;;5019794;28;20485;-85
2022/07/29 13:07:11;;;;;;;6.90;2.73;;;29.70;46.40;;;;;;5004626;28;20530;-84
2022/07/29 13:09:45;;;;;;;2.93;2.07;;;29.80;46.30;;;;;;5029880;28;20492;-83
2022/07/29 13:12:35;;;;;;;3.13;2.50;;;30.20;45.20;;;;;;5019989;28;20527;-83
2022/07/29 13:15:17;;;;;;;4.00;2.50;;;29.70;45.90;;;;;;5026338;28;20523;-83
2022/07/29 13:17:48;;;;;;;2.70;2.17;;;30.40;45.40;;;;;;5007348;28;20514;-85
2022/07/29 13:20:34;;;;;;;2.70;2.50;;;30.80;44.70;;;;;;5007327;28;20576;-83